Lake Ronkonkoma, New York
Current Conditions -  °F | °C
As of 5:56 PM on Saturday 25 Oct 2014 (Local Time) from KISP Reporting Station
Scattered Clouds Scattered Clouds  
Wind Chill: 60°   Ceiling: Unl
Heat Index: 60°   Visibility: 10mi
Dew Point: 46°   Wind: 8mph
Humidity: 60%   Direction: 220°SW
Pressure: 29.64"   Gusts: NA
Location:  40.8149°N, 73.1229°W
Report Text: KISP 252156Z 22007KT 10SM FEW130 SCT250 16/08 A2964 RMK AO2 SLP037 T01560078
Loading
Personal Weather Stations






























Interactive Weather Map
Tropical Storm Tracking
New forecast layout! Learn more

10-Day Weather Forecast

Advertisements
Track Severe Weather on mobile